Time;durP1;ratioP1;P1;durP2;ratioP2;P2;SDS_P1;SDS_P2;PMS_P1;PMS_P2;Temp;Humidity;BMP_temperature;BMP_pressure;BME280_temperature;BME280_humidity;BME280_pressure;Samples;Min_cycle;Max_cycle;Signal;HPM_P1;HPM_P2
2021/07/10 00:01:16;;;;;;;38.03;26.00;;;16.50;99.90;;;;;;5051609;28;20486;-59
2021/07/10 00:03:41;;;;;;;36.47;27.30;;;16.50;99.90;;;;;;5051305;28;20048;-59
2021/07/10 00:06:07;;;;;;;35.85;26.02;;;16.50;99.90;;;;;;5051392;28;20120;-59
2021/07/10 00:08:33;;;;;;;38.35;27.02;;;16.40;99.90;;;;;;5051473;28;20041;-58
2021/07/10 00:11:00;;;;;;;36.60;27.50;;;16.50;99.90;;;;;;5051329;28;20048;-59
2021/07/10 00:13:26;;;;;;;37.88;26.42;;;16.50;99.90;;;;;;5051326;28;20043;-59
2021/07/10 00:15:52;;;;;;;33.42;25.58;;;16.40;99.90;;;;;;5053850;28;20045;-59
2021/07/10 00:18:18;;;;;;;37.00;26.27;;;16.40;99.90;;;;;;5055299;28;20051;-59
2021/07/10 00:20:44;;;;;;;37.10;26.88;;;16.40;99.90;;;;;;5055336;28;20049;-59
2021/07/10 00:23:10;;;;;;;38.65;28.20;;;16.40;99.90;;;;;;5055185;28;20049;-59
2021/07/10 00:25:35;;;;;;;34.25;25.02;;;16.30;99.90;;;;;;5055129;28;20094;-59
2021/07/10 00:28:02;;;;;;;35.65;26.15;;;16.40;99.90;;;;;;5054890;28;20072;-59
2021/07/10 00:30:28;;;;;;;34.53;24.85;;;16.30;99.90;;;;;;5055035;28;20041;-59
2021/07/10 00:32:54;;;;;;;35.58;25.98;;;16.30;99.90;;;;;;5054866;28;20429;-59
2021/07/10 00:35:20;;;;;;;37.45;26.50;;;16.40;99.90;;;;;;5054819;28;20086;-59
2021/07/10 00:37:46;;;;;;;35.38;26.92;;;16.30;99.90;;;;;;5055089;28;20418;-60
2021/07/10 00:40:13;;;;;;;39.67;26.80;;;16.30;99.90;;;;;;5054876;28;20064;-59
2021/07/10 00:42:40;;;;;;;37.03;25.05;;;16.20;99.90;;;;;;5054813;28;20041;-59
2021/07/10 00:45:09;;;;;;;33.15;24.40;;;16.20;99.90;;;;;;5054715;28;20045;-58
2021/07/10 00:47:34;;;;;;;;;;;16.10;99.90;;;;;;5055131;28;20079;-58
2021/07/10 00:50:00;;;;;;;33.70;25.35;;;16.10;99.90;;;;;;5054775;28;19963;-59
2021/07/10 00:52:26;;;;;;;36.10;26.10;;;16.10;99.90;;;;;;5054832;28;20091;-58
2021/07/10 00:54:53;;;;;;;36.33;25.58;;;16.20;99.90;;;;;;5054644;28;20037;-59
2021/07/10 00:57:18;;;;;;;32.47;25.08;;;16.10;99.90;;;;;;5054636;28;20505;-59
2021/07/10 00:59:46;;;;;;;38.33;25.85;;;16.00;99.90;;;;;;5054828;28;20377;-58
2021/07/10 01:02:11;;;;;;;37.50;26.33;;;16.00;99.90;;;;;;5054652;28;20512;-58
2021/07/10 01:04:39;;;;;;;40.38;26.45;;;15.90;99.90;;;;;;5054967;28;20049;-58
2021/07/10 01:07:05;;;;;;;41.30;27.35;;;15.90;99.90;;;;;;5054582;28;20045;-58
2021/07/10 01:09:31;;;;;;;41.47;27.15;;;15.90;99.90;;;;;;5054350;28;20102;-58
2021/07/10 01:11:58;;;;;;;35.35;25.98;;;16.00;99.90;;;;;;5054417;28;20045;-58
2021/07/10 01:14:24;;;;;;;36.42;25.65;;;16.10;99.90;;;;;;5054139;28;20047;-59
2021/07/10 01:16:50;;;;;;;36.05;24.30;;;16.00;99.90;;;;;;5054157;28;20095;-58
2021/07/10 01:19:23;;;;;;;35.92;25.73;;;16.10;99.90;;;;;;5054333;28;20036;-59
2021/07/10 01:21:49;;;;;;;37.03;24.92;;;16.20;99.90;;;;;;5054101;28;20069;-59
2021/07/10 01:24:15;;;;;;;39.80;25.70;;;16.20;99.90;;;;;;5054301;28;20132;-59
2021/07/10 01:26:41;;;;;;;37.17;25.75;;;16.20;99.90;;;;;;5053098;28;20557;-59
2021/07/10 01:29:06;;;;;;;39.90;26.77;;;16.20;99.90;;;;;;5053852;28;20128;-59
2021/07/10 01:31:32;;;;;;;39.72;25.75;;;16.10;99.90;;;;;;5053909;28;20065;-59
2021/07/10 01:34:00;;;;;;;41.60;26.58;;;16.00;99.90;;;;;;5054031;28;20451;-58
2021/07/10 01:36:28;;;;;;;41.95;28.35;;;16.10;99.90;;;;;;5053816;28;20049;-59
2021/07/10 01:38:54;;;;;;;37.42;28.25;;;16.10;99.90;;;;;;5053867;28;20057;-58
2021/07/10 01:41:20;;;;;;;37.80;27.75;;;16.10;99.90;;;;;;5053643;28;20502;-59
2021/07/10 01:43:45;;;;;;;41.58;26.08;;;16.10;99.90;;;;;;5053750;28;20454;-58
2021/07/10 01:46:11;;;;;;;34.63;26.27;;;16.10;99.90;;;;;;5053601;28;20040;-59
2021/07/10 01:48:37;;;;;;;39.22;27.77;;;16.10;99.90;;;;;;5053650;28;20048;-58
2021/07/10 01:51:02;;;;;;;41.65;28.42;;;15.90;99.90;;;;;;5053611;28;20044;-59
2021/07/10 01:53:28;;;;;;;35.97;27.98;;;15.90;99.90;;;;;;5053455;28;20091;-58
2021/07/10 01:55:54;;;;;;;35.20;26.95;;;15.80;99.90;;;;;;5053441;28;20049;-58
2021/07/10 01:58:20;;;;;;;31.25;25.08;;;15.70;99.90;;;;;;5053283;28;20098;-59
2021/07/10 02:00:46;;;;;;;39.63;27.85;;;15.70;99.90;;;;;;5053366;28;20048;-59
2021/07/10 02:03:14;;;;;;;34.42;26.42;;;15.60;99.90;;;;;;5053377;28;20052;-59
2021/07/10 02:05:40;;;;;;;33.30;25.63;;;15.60;99.90;;;;;;5053293;28;20048;-59
2021/07/10 02:08:08;;;;;;;35.90;27.35;;;15.60;99.90;;;;;;5053074;28;20170;-59
2021/07/10 02:10:34;;;;;;;43.00;29.05;;;15.60;99.90;;;;;;5053144;28;20047;-60
2021/07/10 02:13:05;;;;;;;39.45;26.65;;;15.50;99.90;;;;;;5053042;28;20057;-59
2021/07/10 02:15:32;;;;;;;37.40;27.45;;;15.40;99.90;;;;;;5053248;28;20041;-59
2021/07/10 02:17:58;;;;;;;33.45;24.38;;;15.50;99.90;;;;;;5053103;28;20052;-59
2021/07/10 02:20:26;;;;;;;35.50;25.13;;;15.50;99.90;;;;;;5053007;28;20148;-59
2021/07/10 02:22:52;;;;;;;39.15;26.35;;;15.50;99.90;;;;;;5051789;28;20073;-58
2021/07/10 02:25:19;;;;;;;38.75;26.55;;;15.40;99.90;;;;;;5052770;28;20087;-59
2021/07/10 02:27:45;;;;;;;37.15;26.48;;;15.40;99.90;;;;;;5052983;28;20053;-59
2021/07/10 02:30:15;;;;;;;39.60;26.17;;;15.30;99.90;;;;;;5051335;28;20055;-59
2021/07/10 02:32:41;;;;;;;37.38;26.67;;;15.20;99.90;;;;;;5052718;28;20087;-59
2021/07/10 02:35:09;;;;;;;38.20;27.30;;;15.20;99.90;;;;;;5052802;28;20099;-58
2021/07/10 02:37:35;;;;;;;35.70;26.10;;;15.30;99.90;;;;;;5052921;28;20045;-58
2021/07/10 02:40:05;;;;;;;37.38;27.08;;;15.20;99.90;;;;;;5052374;28;20123;-58
2021/07/10 02:42:31;;;;;;;36.70;26.67;;;15.20;99.90;;;;;;5052564;28;20036;-59
2021/07/10 02:44:57;;;;;;;36.63;25.80;;;15.20;99.90;;;;;;5052478;28;20486;-58
2021/07/10 02:47:22;;;;;;;35.58;26.10;;;15.20;99.90;;;;;;5052372;28;20087;-59
2021/07/10 02:49:48;;;;;;;36.72;25.42;;;15.10;99.90;;;;;;5052427;28;20037;-58
2021/07/10 02:52:14;;;;;;;35.75;25.50;;;15.10;99.90;;;;;;5052357;28;20045;-58
2021/07/10 02:54:39;;;;;;;37.15;26.83;;;15.00;99.90;;;;;;5052289;28;20076;-59
2021/07/10 02:57:05;;;;;;;34.90;23.88;;;15.00;99.90;;;;;;5052478;28;20056;-59
2021/07/10 02:59:31;;;;;;;33.22;23.88;;;14.90;99.90;;;;;;5052097;28;20045;-59
2021/07/10 03:01:57;;;;;;;34.38;25.35;;;15.00;99.90;;;;;;5052310;28;20047;-59
2021/07/10 03:04:23;;;;;;;35.05;26.05;;;14.90;99.90;;;;;;5052247;28;20410;-59
2021/07/10 03:06:48;;;;;;;33.92;22.75;;;15.00;99.90;;;;;;5052086;28;20134;-59
2021/07/10 03:09:14;;;;;;;34.63;25.40;;;15.00;99.90;;;;;;5052344;28;20466;-59
2021/07/10 03:11:40;;;;;;;33.60;24.65;;;14.90;99.90;;;;;;5052574;28;20049;-58
2021/07/10 03:14:07;;;;;;;35.13;25.27;;;14.90;99.90;;;;;;5052343;28;20048;-59
2021/07/10 03:16:33;;;;;;;34.53;25.50;;;14.90;99.90;;;;;;5051984;28;20036;-59
2021/07/10 03:18:59;;;;;;;40.08;26.65;;;14.90;99.90;;;;;;5051983;28;20403;-59
2021/07/10 03:21:24;;;;;;;31.85;23.17;;;15.00;99.90;;;;;;5051832;28;20037;-59
2021/07/10 03:23:50;;;;;;;36.78;25.45;;;15.00;99.90;;;;;;5051775;28;20546;-58
2021/07/10 03:26:16;;;;;;;37.03;25.73;;;15.00;99.90;;;;;;5051744;28;20041;-59
2021/07/10 03:28:41;;;;;;;38.85;25.70;;;15.00;99.90;;;;;;5050319;28;20132;-59
2021/07/10 03:31:08;;;;;;;37.95;26.35;;;15.00;99.90;;;;;;5052067;28;20068;-58
2021/07/10 03:33:38;;;;;;;46.03;29.08;;;15.00;99.90;;;;;;5051742;28;20041;-60
2021/07/10 03:36:05;;;;;;;42.10;27.00;;;15.00;99.90;;;;;;5051653;28;20049;-58
2021/07/10 03:38:32;;;;;;;41.47;28.50;;;15.10;99.90;;;;;;5051593;28;20475;-58
2021/07/10 03:40:58;;;;;;;36.20;26.05;;;15.00;99.90;;;;;;5050030;28;20128;-59
2021/07/10 03:43:24;;;;;;;39.38;26.80;;;15.10;99.90;;;;;;5051760;28;20539;-59
2021/07/10 03:45:52;;;;;;;37.58;27.02;;;14.90;99.90;;;;;;5051549;28;20158;-58
2021/07/10 03:48:19;;;;;;;34.45;25.75;;;15.00;99.90;;;;;;5051638;28;20041;-59
2021/07/10 03:50:45;;;;;;;37.13;25.30;;;15.10;99.90;;;;;;5056506;28;20536;-59
2021/07/10 03:53:12;;;;;;;37.40;26.90;;;15.10;99.90;;;;;;5058057;28;20048;-58
2021/07/10 03:55:38;;;;;;;39.28;26.98;;;15.00;99.90;;;;;;5058170;28;20041;-59
2021/07/10 03:58:04;;;;;;;34.22;26.50;;;15.00;99.90;;;;;;5058060;28;20040;-59
2021/07/10 04:00:30;;;;;;;39.90;27.63;;;15.00;99.90;;;;;;5058118;28;20040;-59
2021/07/10 04:02:56;;;;;;;35.78;24.60;;;15.00;99.90;;;;;;5057949;28;20045;-59
2021/07/10 04:05:22;;;;;;;34.10;23.88;;;15.00;99.90;;;;;;5058014;28;20045;-59
2021/07/10 04:07:48;;;;;;;37.70;25.42;;;14.90;99.90;;;;;;5058234;28;20095;-59
2021/07/10 04:10:14;;;;;;;35.22;25.77;;;14.90;99.90;;;;;;5058184;28;20059;-60
2021/07/10 04:12:42;;;;;;;33.10;24.35;;;14.90;99.90;;;;;;5057955;28;20076;-59
2021/07/10 04:15:10;;;;;;;36.28;23.65;;;14.90;99.90;;;;;;5058037;28;20127;-59
2021/07/10 04:17:36;;;;;;;32.35;23.80;;;15.00;99.90;;;;;;5057943;28;20072;-59
2021/07/10 04:20:04;;;;;;;34.00;24.35;;;15.00;99.90;;;;;;5057892;28;20037;-59
2021/07/10 04:22:33;;;;;;;37.88;23.90;;;14.90;99.90;;;;;;5057847;28;20048;-59
2021/07/10 04:25:03;;;;;;;34.50;25.35;;;14.90;99.90;;;;;;5058071;28;20445;-59
2021/07/10 04:27:32;;;;;;;35.83;23.73;;;14.90;99.90;;;;;;5057949;28;20143;-59
2021/07/10 04:29:58;;;;;;;32.53;23.98;;;14.90;99.90;;;;;;5057661;28;20049;-58
2021/07/10 04:32:24;;;;;;;39.83;25.88;;;15.00;99.90;;;;;;5057715;28;20041;-59
2021/07/10 04:34:50;;;;;;;33.22;24.17;;;15.00;99.90;;;;;;5057867;28;20044;-58
2021/07/10 04:37:16;;;;;;;41.10;25.05;;;15.00;99.90;;;;;;5057962;28;20052;-59
2021/07/10 04:39:42;;;;;;;36.10;24.77;;;15.10;99.90;;;;;;5057951;28;20041;-59
2021/07/10 04:42:08;;;;;;;38.50;26.42;;;15.10;99.90;;;;;;5057760;28;20052;-59
2021/07/10 04:44:35;;;;;;;38.40;26.63;;;15.10;99.90;;;;;;5057851;28;20045;-59
2021/07/10 04:47:01;;;;;;;35.42;25.17;;;15.10;99.90;;;;;;5057624;28;20072;-59
2021/07/10 04:49:27;;;;;;;35.17;24.33;;;15.20;99.90;;;;;;5057787;28;20033;-59
2021/07/10 04:51:53;;;;;;;40.15;26.27;;;15.30;99.90;;;;;;5057555;28;20555;-59
2021/07/10 04:54:18;;;;;;;34.08;24.52;;;15.40;99.90;;;;;;5057796;28;20124;-59
2021/07/10 04:56:44;;;;;;;38.10;26.30;;;15.40;99.90;;;;;;5057688;28;20487;-59
2021/07/10 04:59:12;;;;;;;39.60;26.05;;;15.50;99.90;;;;;;5057641;28;20045;-59
2021/07/10 05:01:38;;;;;;;36.20;25.17;;;15.40;99.90;;;;;;5055810;28;20037;-59
2021/07/10 05:04:04;;;;;;;44.22;28.65;;;15.60;99.90;;;;;;5054652;28;20479;-59
2021/07/10 05:06:29;;;;;;;41.10;28.35;;;15.50;99.90;;;;;;5054500;28;20067;-58
2021/07/10 05:08:55;;;;;;;43.83;28.65;;;15.70;99.90;;;;;;5054746;28;20036;-59
2021/07/10 05:11:21;;;;;;;41.85;28.58;;;15.60;99.90;;;;;;5054220;28;20033;-59
2021/07/10 05:13:47;;;;;;;40.75;28.15;;;15.80;99.90;;;;;;5054242;28;20102;-58
2021/07/10 05:16:13;;;;;;;41.88;28.63;;;15.90;99.90;;;;;;5054122;28;20049;-59
2021/07/10 05:18:39;;;;;;;39.78;27.80;;;15.90;99.90;;;;;;5054330;28;20052;-58
2021/07/10 05:21:05;;;;;;;39.92;28.20;;;15.90;99.90;;;;;;5054285;28;20107;-59
2021/07/10 05:23:30;;;;;;;40.38;28.42;;;16.00;99.90;;;;;;5054172;28;20098;-59
2021/07/10 05:25:56;;;;;;;35.53;25.70;;;16.10;99.90;;;;;;5054017;28;20372;-59
2021/07/10 05:28:22;;;;;;;39.25;27.10;;;16.20;99.90;;;;;;5053774;28;20049;-59
2021/07/10 05:30:49;;;;;;;38.00;27.70;;;16.30;99.90;;;;;;5054355;28;20383;-58
2021/07/10 05:33:16;;;;;;;41.30;29.08;;;16.30;99.90;;;;;;5054076;28;20069;-59
2021/07/10 05:35:45;;;;;;;39.90;27.83;;;16.50;99.90;;;;;;5053893;28;20364;-58
2021/07/10 05:38:12;;;;;;;38.83;25.85;;;16.50;99.90;;;;;;5053770;28;20041;-59
2021/07/10 05:40:37;;;;;;;37.00;26.85;;;16.60;99.90;;;;;;5053710;28;20124;-59
2021/07/10 05:43:03;;;;;;;38.42;27.30;;;16.60;99.90;;;;;;5052467;28;20057;-59
2021/07/10 05:45:29;;;;;;;40.97;28.10;;;16.70;99.90;;;;;;5053631;28;20037;-59
2021/07/10 05:47:55;;;;;;;36.67;26.77;;;16.80;99.90;;;;;;5053497;28;20112;-58
2021/07/10 05:50:21;;;;;;;38.58;25.35;;;16.90;99.90;;;;;;5053454;28;20048;-58
2021/07/10 05:52:46;;;;;;;32.28;24.83;;;17.00;99.90;;;;;;5053571;28;20037;-58
2021/07/10 05:55:13;;;;;;;37.15;27.40;;;17.10;99.90;;;;;;5053490;28;20040;-58
2021/07/10 05:57:39;;;;;;;35.17;25.65;;;17.20;99.90;;;;;;5053505;28;20049;-58
2021/07/10 06:00:07;;;;;;;34.65;25.65;;;17.30;99.90;;;;;;5053307;28;20072;-58
2021/07/10 06:02:33;;;;;;;35.97;24.90;;;17.30;99.90;;;;;;5053472;28;20041;-59
2021/07/10 06:04:59;;;;;;;36.17;25.63;;;17.50;99.90;;;;;;5053406;28;20407;-59
2021/07/10 06:07:24;;;;;;;35.33;25.98;;;17.50;99.90;;;;;;5053361;28;20453;-58
2021/07/10 06:09:50;;;;;;;35.42;25.88;;;17.50;99.90;;;;;;5053476;28;20159;-59
2021/07/10 06:12:16;;;;;;;21.85;16.75;;;17.70;99.90;;;;;;5053258;28;20052;-60
2021/07/10 06:14:41;;;;;;;27.17;20.92;;;17.80;99.90;;;;;;5052977;28;20115;-59
2021/07/10 06:17:08;;;;;;;29.45;23.38;;;17.90;99.90;;;;;;5053062;28;20044;-59
2021/07/10 06:19:33;;;;;;;32.13;24.50;;;18.10;99.90;;;;;;5053158;28;20040;-59
2021/07/10 06:21:59;;;;;;;30.95;22.38;;;18.20;99.90;;;;;;5052826;28;20123;-59
2021/07/10 06:24:28;;;;;;;28.65;23.30;;;18.30;99.90;;;;;;5052811;28;20471;-60
2021/07/10 06:26:54;;;;;;;32.28;23.73;;;18.40;99.90;;;;;;5052745;28;20052;-59
2021/07/10 06:29:19;;;;;;;25.08;20.25;;;18.60;99.90;;;;;;5052528;28;20048;-59
2021/07/10 06:31:45;;;;;;;26.40;19.45;;;18.70;99.90;;;;;;5052916;28;20041;-58
2021/07/10 06:34:11;;;;;;;25.35;20.02;;;18.80;99.90;;;;;;5052881;28;20036;-60
2021/07/10 06:36:38;;;;;;;23.50;20.08;;;19.00;99.90;;;;;;5052676;28;20048;-59
2021/07/10 06:39:04;;;;;;;20.83;17.52;;;19.10;99.90;;;;;;5052628;28;20033;-59
2021/07/10 06:41:30;;;;;;;19.40;16.63;;;19.10;99.90;;;;;;5052547;28;20032;-59
2021/07/10 06:43:56;;;;;;;28.30;18.33;;;19.30;99.90;;;;;;5052711;28;20107;-59
2021/07/10 06:46:22;;;;;;;23.67;18.60;;;19.30;99.90;;;;;;5052369;28;20079;-59
2021/07/10 06:48:48;;;;;;;19.60;16.55;;;19.50;99.90;;;;;;5052555;28;20065;-59
2021/07/10 06:51:13;;;;;;;20.27;15.52;;;19.70;99.90;;;;;;5052360;28;20044;-59
2021/07/10 06:53:39;;;;;;;16.15;13.75;;;19.70;99.90;;;;;;5052386;28;20041;-58
2021/07/10 06:56:05;;;;;;;15.52;13.50;;;20.00;99.90;;;;;;5052313;28;20044;-59
2021/07/10 06:58:31;;;;;;;15.43;12.55;;;20.10;99.90;;;;;;5052472;28;20045;-59
2021/07/10 07:00:57;;;;;;;14.20;12.73;;;20.30;99.90;;;;;;5052587;28;20071;-58
2021/07/10 07:03:22;;;;;;;17.98;15.32;;;20.30;99.90;;;;;;5052526;28;20498;-59
2021/07/10 07:05:48;;;;;;;17.95;14.05;;;20.30;99.90;;;;;;5052238;28;20128;-59
2021/07/10 07:08:14;;;;;;;16.83;13.65;;;20.50;99.90;;;;;;5052191;28;20056;-59
2021/07/10 07:10:39;;;;;;;16.42;12.80;;;20.70;99.90;;;;;;5052106;28;20052;-59
2021/07/10 07:13:05;;;;;;;15.60;12.55;;;20.70;99.90;;;;;;5051922;28;20047;-59
2021/07/10 07:15:31;;;;;;;16.45;14.05;;;20.60;99.90;;;;;;5051941;28;20036;-59
2021/07/10 07:17:57;;;;;;;14.55;11.73;;;20.60;99.90;;;;;;5052111;28;20052;-59
2021/07/10 07:20:23;;;;;;;14.18;11.75;;;20.60;99.90;;;;;;5052036;28;20052;-59
2021/07/10 07:22:50;;;;;;;12.68;11.05;;;20.50;99.90;;;;;;5051796;28;20094;-59
2021/07/10 07:25:18;;;;;;;12.90;9.75;;;20.40;99.90;;;;;;5051010;28;20044;-60
2021/07/10 07:27:44;;;;;;;8.50;7.60;;;20.40;99.90;;;;;;5051933;28;20044;-59
2021/07/10 07:30:11;;;;;;;7.20;6.50;;;20.40;99.90;;;;;;5051542;28;20049;-59
2021/07/10 07:32:37;;;;;;;9.55;8.55;;;20.60;99.90;;;;;;5051841;28;20054;-59
2021/07/10 07:35:05;;;;;;;11.00;7.60;;;20.50;99.90;;;;;;5051642;28;20048;-59
2021/07/10 07:37:31;;;;;;;11.93;7.43;;;20.30;99.90;;;;;;5051686;28;20041;-59
2021/07/10 07:39:57;;;;;;;8.23;7.43;;;20.20;99.90;;;;;;5051608;28;20124;-59
2021/07/10 07:42:22;;;;;;;8.82;7.93;;;20.20;99.90;;;;;;5051664;28;20051;-58
2021/07/10 07:44:48;;;;;;;8.30;6.72;;;20.30;99.90;;;;;;5051822;28;20045;-59
2021/07/10 07:47:16;;;;;;;8.98;8.10;;;20.50;99.90;;;;;;5051545;28;20064;-60
2021/07/10 07:49:45;;;;;;;10.10;8.13;;;20.60;99.90;;;;;;5051567;28;20412;-59
2021/07/10 07:52:12;;;;;;;9.20;7.47;;;20.90;99.90;;;;;;5051522;28;20044;-58
2021/07/10 07:54:38;;;;;;;11.18;9.30;;;21.00;99.90;;;;;;5051430;28;20068;-59
2021/07/10 07:57:05;;;;;;;10.05;8.68;;;21.00;99.90;;;;;;5051713;28;20080;-59
2021/07/10 07:59:30;;;;;;;10.65;8.85;;;20.80;99.90;;;;;;5051608;28;20049;-59
2021/07/10 08:01:56;;;;;;;12.02;8.20;;;20.80;99.90;;;;;;5051431;28;20051;-58
2021/07/10 08:04:22;;;;;;;7.90;7.03;;;20.80;99.90;;;;;;5051403;28;20033;-59
2021/07/10 08:06:48;;;;;;;9.43;8.35;;;20.90;99.90;;;;;;5051264;28;20045;-59
2021/07/10 08:09:14;;;;;;;8.63;7.82;;;20.80;99.90;;;;;;5051256;28;20087;-59
2021/07/10 08:11:40;;;;;;;9.93;8.20;;;20.70;99.90;;;;;;5051465;28;20392;-59
2021/07/10 08:14:07;;;;;;;11.50;8.15;;;20.70;99.90;;;;;;5051725;28;20068;-59
2021/07/10 08:16:33;;;;;;;9.73;8.30;;;20.60;99.90;;;;;;5051496;28;20615;-60
2021/07/10 08:18:59;;;;;;;9.73;8.32;;;20.40;99.90;;;;;;5051608;28;20432;-59
2021/07/10 08:21:27;;;;;;;9.98;8.95;;;20.30;99.90;;;;;;5051482;28;20083;-58
2021/07/10 08:23:56;;;;;;;10.50;7.72;;;20.30;99.90;;;;;;5051471;28;20075;-60
2021/07/10 08:26:22;;;;;;;9.10;8.20;;;20.30;99.90;;;;;;5051427;28;20048;-59
2021/07/10 08:28:48;;;;;;;8.88;7.90;;;20.30;99.90;;;;;;5051098;28;20418;-59
2021/07/10 08:31:14;;;;;;;10.50;8.70;;;20.30;99.90;;;;;;5051513;28;20481;-59
2021/07/10 08:33:40;;;;;;;9.90;8.90;;;20.40;99.90;;;;;;5051233;28;20510;-59
2021/07/10 08:36:07;;;;;;;9.00;8.02;;;20.60;99.90;;;;;;5052277;28;20536;-60
2021/07/10 08:38:36;;;;;;;13.52;8.13;;;20.70;99.90;;;;;;5055126;28;20098;-59
2021/07/10 08:41:03;;;;;;;7.85;7.05;;;20.70;99.90;;;;;;5055245;28;20111;-59
2021/07/10 08:43:29;;;;;;;7.90;7.10;;;20.90;99.90;;;;;;5055044;28;20036;-59
2021/07/10 08:45:56;;;;;;;8.38;7.43;;;20.80;99.90;;;;;;5055001;28;20144;-59
2021/07/10 08:48:22;;;;;;;10.60;7.55;;;20.80;99.90;;;;;;5054758;28;20072;-59
2021/07/10 08:50:48;;;;;;;9.60;7.03;;;20.90;99.90;;;;;;5054602;28;20037;-59
2021/07/10 08:53:13;;;;;;;9.50;6.88;;;21.30;99.90;;;;;;5054625;28;20543;-59
2021/07/10 08:55:39;;;;;;;8.80;6.75;;;21.70;99.90;;;;;;5054757;28;20098;-59
2021/07/10 08:58:06;;;;;;;7.18;5.82;;;21.90;99.90;;;;;;5054543;28;20048;-59
2021/07/10 09:00:37;;;;;;;7.93;6.03;;;21.80;99.90;;;;;;5054585;28;20056;-59
2021/07/10 09:03:05;;;;;;;7.20;6.22;;;21.80;99.90;;;;;;5054402;28;20094;-60
2021/07/10 09:05:32;;;;;;;7.13;6.43;;;21.60;99.90;;;;;;5054531;28;20422;-60
2021/07/10 09:08:24;;;;;;;7.63;6.65;;;21.70;99.90;;;;;;5054483;28;20487;-60
2021/07/10 09:11:00;;;;;;;7.93;6.68;;;21.90;99.90;;;;;;5054298;28;20435;-60
2021/07/10 09:13:35;;;;;;;6.90;6.03;;;22.20;99.90;;;;;;5054254;28;20075;-60
2021/07/10 09:16:04;;;;;;;6.55;5.85;;;22.10;99.90;;;;;;5054716;28;20044;-59
2021/07/10 09:18:59;;;;;;;7.13;6.40;;;21.80;99.90;;;;;;5054338;28;20063;-59
2021/07/10 09:21:50;;;;;;;6.97;5.72;;;21.70;99.90;;;;;;5052395;28;20492;-58
2021/07/10 09:24:34;;;;;;;6.00;5.35;;;21.70;99.90;;;;;;5053920;28;20043;-59
2021/07/10 09:27:09;;;;;;;6.80;6.18;;;21.60;99.90;;;;;;5053970;28;20544;-59
2021/07/10 09:29:45;;;;;;;6.72;5.90;;;21.60;99.90;;;;;;5052716;28;20045;-59
2021/07/10 09:32:22;;;;;;;8.18;5.95;;;21.60;99.90;;;;;;5053979;28;20045;-59
2021/07/10 09:34:53;;;;;;;6.22;5.45;;;21.80;99.90;;;;;;5053973;28;20048;-59
2021/07/10 09:37:31;;;;;;;10.90;5.57;;;22.00;99.90;;;;;;5053781;28;20558;-60
2021/07/10 09:39:59;;;;;;;8.10;6.13;;;22.30;99.90;;;;;;5053858;28;20048;-59
2021/07/10 09:42:31;;;;;;;5.72;5.10;;;22.40;99.90;;;;;;5053826;28;20060;-59
2021/07/10 09:44:57;;;;;;;6.47;5.10;;;22.60;99.90;;;;;;5053603;28;20045;-60
2021/07/10 09:47:29;;;;;;;6.63;5.45;;;22.90;99.90;;;;;;5052636;28;20368;-58
2021/07/10 09:49:56;;;;;;;5.25;4.72;;;22.80;99.90;;;;;;5053922;28;20075;-59
2021/07/10 09:52:24;;;;;;;5.65;4.85;;;23.00;99.90;;;;;;5053464;28;20059;-60
2021/07/10 09:54:53;;;;;;;6.60;4.93;;;23.30;99.90;;;;;;5053517;28;20059;-59
2021/07/10 09:57:26;;;;;;;5.47;4.97;;;23.50;99.90;;;;;;5053676;28;20527;-60
2021/07/10 09:59:57;;;;;;;5.55;4.53;;;23.30;99.90;;;;;;5053640;28;20056;-59
2021/07/10 10:02:34;;;;;;;5.72;4.82;;;23.20;99.90;;;;;;5053554;28;20124;-59
2021/07/10 10:05:11;;;;;;;6.68;5.57;;;22.80;99.90;;;;;;5053572;28;20131;-59
2021/07/10 10:07:45;;;;;;;5.88;4.97;;;22.70;99.90;;;;;;5053238;28;20049;-60
2021/07/10 10:10:24;;;;;;;6.88;5.93;;;22.60;99.90;;;;;;5053328;28;20076;-59
2021/07/10 10:13:11;;;;;;;;;;;22.50;99.90;;;;;;5053765;28;20087;-59
2021/07/10 10:15:46;;;;;;;7.03;5.55;;;22.30;99.90;;;;;;5053029;28;19917;-59
2021/07/10 10:18:18;;;;;;;5.63;5.10;;;22.10;99.90;;;;;;5053189;28;20481;-59
2021/07/10 10:20:45;;;;;;;7.38;6.07;;;22.30;99.90;;;;;;5052911;28;20037;-59
2021/07/10 10:23:12;;;;;;;6.20;5.15;;;22.40;99.90;;;;;;5052983;28;20041;-59
2021/07/10 10:25:40;;;;;;;7.22;6.53;;;22.80;99.90;;;;;;5052903;28;20043;-59
2021/07/10 10:28:08;;;;;;;9.03;6.90;;;23.00;99.90;;;;;;5052807;28;20459;-59
2021/07/10 10:30:35;;;;;;;7.03;6.30;;;23.00;99.90;;;;;;5052904;28;20354;-60
2021/07/10 10:33:02;;;;;;;7.32;6.30;;;23.30;99.90;;;;;;5052658;28;20043;-59
2021/07/10 10:35:28;;;;;;;8.13;6.50;;;23.20;99.90;;;;;;5053336;28;20053;-59
2021/07/10 10:37:54;;;;;;;7.60;6.50;;;23.00;99.90;;;;;;5052737;28;20049;-59
2021/07/10 10:40:23;;;;;;;7.28;6.57;;;22.90;99.90;;;;;;5052936;28;20032;-61
2021/07/10 10:42:58;;;;;;;8.82;5.82;;;22.80;99.90;;;;;;5052728;28;20048;-61
2021/07/10 10:45:34;;;;;;;6.20;5.45;;;22.70;99.90;;;;;;5052445;28;20136;-62
2021/07/10 10:48:00;;;;;;;6.60;5.43;;;22.50;99.90;;;;;;5052437;28;20503;-62
2021/07/10 10:50:32;;;;;;;6.47;5.22;;;22.70;99.90;;;;;;5052492;28;20483;-62
2021/07/10 10:52:59;;;;;;;6.38;5.78;;;22.60;99.90;;;;;;5052515;28;20043;-61
2021/07/10 10:55:28;;;;;;;6.15;5.15;;;22.60;99.90;;;;;;5052642;28;20479;-62
2021/07/10 10:58:12;;;;;;;6.85;5.75;;;22.50;99.90;;;;;;5052522;28;20052;-61
2021/07/10 11:00:39;;;;;;;7.22;5.20;;;22.50;99.90;;;;;;5052038;28;20083;-63
2021/07/10 11:03:10;;;;;;;6.93;5.28;;;22.50;99.90;;;;;;5052343;28;20052;-62
2021/07/10 11:05:44;;;;;;;7.57;5.82;;;22.60;99.90;;;;;;5052409;28;20544;-62
2021/07/10 11:08:19;;;;;;;5.50;5.00;;;22.80;99.90;;;;;;5052132;28;20045;-62
2021/07/10 11:10:54;;;;;;;7.80;5.60;;;22.70;99.90;;;;;;5051078;28;20052;-62
2021/07/10 11:13:32;;;;;;;7.30;6.03;;;22.90;99.90;;;;;;5051892;28;20384;-61
2021/07/10 11:16:07;;;;;;;6.40;5.75;;;22.90;99.90;;;;;;5051999;28;20491;-63
2021/07/10 11:18:55;;;;;;;6.60;5.75;;;22.90;99.90;;;;;;5052355;28;20477;-62
2021/07/10 11:21:38;;;;;;;6.85;5.80;;;23.10;99.90;;;;;;5052366;28;20052;-62
2021/07/10 11:24:20;;;;;;;10.10;5.90;;;23.00;99.90;;;;;;5052115;28;20414;-61
2021/07/10 11:26:54;;;;;;;7.47;6.22;;;22.90;99.90;;;;;;5052256;28;20057;-62
2021/07/10 11:29:25;;;;;;;6.93;6.07;;;22.80;99.90;;;;;;5051569;28;20079;-61
2021/07/10 11:31:52;;;;;;;11.43;6.03;;;22.60;99.90;;;;;;5051994;28;20128;-62
2021/07/10 11:34:19;;;;;;;8.20;5.28;;;22.50;99.90;;;;;;5051831;28;20163;-62
2021/07/10 11:36:55;;;;;;;7.38;5.50;;;22.50;99.90;;;;;;5051675;28;20076;-61
2021/07/10 11:39:23;;;;;;;8.77;6.35;;;22.50;99.90;;;;;;5051631;28;20040;-62
2021/07/10 11:42:18;;;;;;;7.93;6.20;;;22.40;99.90;;;;;;5051567;28;20438;-62
2021/07/10 11:44:46;;;;;;;7.35;4.90;;;22.60;99.90;;;;;;4990163;28;20109;-62
2021/07/10 11:47:12;;;;;;;5.63;4.70;;;22.40;99.90;;;;;;4989964;28;20050;-61
2021/07/10 11:49:41;;;;;;;4.75;4.30;;;22.30;99.90;;;;;;4990254;28;20043;-62
2021/07/10 11:52:12;;;;;;;8.65;4.53;;;22.40;99.90;;;;;;4990150;28;20109;-60
2021/07/10 11:54:40;;;;;;;6.32;5.63;;;22.40;99.90;;;;;;4990211;28;20100;-60
2021/07/10 11:57:08;;;;;;;8.95;5.38;;;22.30;99.90;;;;;;4990196;28;20061;-59
2021/07/10 11:59:34;;;;;;;7.18;4.60;;;22.20;99.90;;;;;;4990022;28;20046;-59
2021/07/10 12:02:19;;;;;;;5.60;5.10;;;22.20;99.90;;;;;;4990044;28;20109;-59
2021/07/10 12:05:06;;;;;;;7.70;5.30;;;22.10;99.90;;;;;;4990298;28;20408;-59
2021/07/10 12:07:36;;;;;;;5.95;5.35;;;21.90;99.90;;;;;;4990261;28;20157;-60
2021/07/10 12:10:07;;;;;;;6.85;5.30;;;21.80;99.90;;;;;;4989828;28;20121;-59
2021/07/10 12:12:50;;;;;;;6.93;4.88;;;21.90;99.90;;;;;;4993783;28;20130;-60
2021/07/10 12:15:21;;;;;;;5.97;4.63;;;21.90;99.90;;;;;;4993954;28;20145;-59
2021/07/10 12:17:49;;;;;;;5.65;5.05;;;22.00;99.90;;;;;;4993831;28;20047;-60
2021/07/10 12:20:18;;;;;;;7.05;5.03;;;22.10;99.90;;;;;;4993782;28;20074;-58
2021/07/10 12:22:53;;;;;;;5.43;4.63;;;22.00;99.90;;;;;;5055081;28;20113;-60
2021/07/10 12:25:22;;;;;;;5.25;4.40;;;22.00;99.90;;;;;;5055116;28;20057;-59
2021/07/10 12:27:52;;;;;;;6.95;5.38;;;22.10;99.90;;;;;;5055046;28;20463;-60
2021/07/10 12:30:17;;;;;;;5.18;4.68;;;22.10;99.90;;;;;;5055209;28;20130;-60
2021/07/10 12:32:43;;;;;;;5.60;5.07;;;22.00;99.90;;;;;;5054073;28;20044;-60
2021/07/10 12:35:09;;;;;;;5.25;4.75;;;22.10;99.90;;;;;;5055136;28;20041;-59
2021/07/10 12:37:34;;;;;;;5.28;4.78;;;22.10;99.90;;;;;;5054906;28;20053;-60
2021/07/10 12:40:11;;;;;;;5.45;4.80;;;22.10;99.90;;;;;;5054943;28;20063;-60